Aeroporto :
LOGIN :

Iscrizione | Disclaimer

   EN    FR    IT 

 










Sommario :    VFR   VFR Marginale   IFR   IFR Intensivo   IFR Molto Intensivo
Visibilità : 
Base nubi : 
>= 8 km
>= 3000ft
5 / 8 km
1000 / 3000 ft
1500m / 5 km
500 / 1000 ft
800 / 1500m
200 / 500 ft
< 800m
< 200 ft
Simboli :   Temporali  Nebbia  Neve Forte  Precipitazioni Forti  Vento > 20 kt
SIGMETs :   Varie  Temporali  Ghiacco  Turbolenza  Onda orograficha  Ceneri Vulcaniche






- Altitudine del aeroporto : 143 ft


LGEL - Elefsis

ULTIMO METAR :
  • 291350Z 35007KT 9999 FEW025 14/M03 Q1018

METARs OBSOLETI :
  • 291320Z 33010KT 9999 FEW025 14/M04 Q1018
  • 291250Z 35009KT 9999 FEW025 14/M03 Q1017
  • 291220Z 36010KT 9999 FEW025 13/M04 Q1018
  • 291150Z 35009G19KT 9999 FEW025 14/M03 Q1018
  • 291120Z 34010G20KT 9999 FEW025 13/M04 Q1018
  • 291050Z 36010G22KT 9999 FEW025 13/M04 Q1018

TAF TAF LGEL
Valido dal 29 a 12 ore il 01 a 12 ore UTC


291100Z 2912/0112 35015G25KT 9999 FEW025
TEMPO 2912/2915 35018G28KT
BECMG 2919/2921 VRB05KT



MetMap, La meteo Aeronautica in un colpo d'occhio ! - Copyright ORBIFLY Dicembre 2007 - Disclaimer

ORBIFLY MET'MAP TEAM :

Programmazione e sviluppo : Alexandra Zaïnal
Concezione : Baudouin d'Aumeries
Aiuto per la programmazione : Marc-Olivier Méhu
Supporto tecnico e logistico : Manuel Goepfert
Aiuto per la traduzione : Arnaldo La Scala

Contatto : metmap@orbifly.com




FONTI E CREDITI :

   NOAA